Saturday, December 16, 2017, 2:05 AM EST
Back to Local

KMHT, Manchester Airport

Location: Manchester, NH, United States Lat: 42.933
Local Time: 2:05 AM EST ( 7:05 GMT) Lon: -71.433
Time Zone: US/Eastern Elev: 232 ft

Show me the last for .
Show Coded

Time T Td Feel RH Dir Speed Gust Alt SLP Vis Weather Sky Remarks
2017-12-16 01:53 21 13 16 70 270° 3 - 29.77 29.83 10 SCT100 None
2017-12-16 00:53 22 14 13 71 300° 8 - 29.78 29.84 10 OVC100 Snow depth: 4"
6-hr Min Temp (1am): 21.0°F
6-hr Max Temp (1am): 23.0°F
2017-12-15 23:53 22 14 - 71 - Calm - 29.79 29.85 10 FEW070 BKN100 24-hr Min Temp (12am): 10.0°F
24-hr Max Temp (12am): 25.0°F
2017-12-15 22:53 23 14 18 67 230° 3 - 29.81 29.87 10 BKN070 OVC110 None
2017-12-15 21:53 23 13 18 64 200° 3 - 29.82 29.88 10 BKN060 OVC070 None
2017-12-15 20:53 23 13 17 64 200° 5 - 29.84 29.90 10 OVC080 None
2017-12-15 19:53 23 12 18 62 190° 3 - 29.84 29.90 10 OVC070 None
2017-12-15 18:53 23 12 - 62 - Calm - 29.84 29.90 10 OVC085 Snow depth: 4"
6-hr Min Temp (7pm): 23.0°F
6-hr Max Temp (7pm): 25.0°F
2017-12-15 17:53 24 11 - 56 - Calm - 29.87 29.93 10 OVC060 None
2017-12-15 16:53 24 11 20 56 100° 3 - 29.89 29.96 10 OVC085 None
2017-12-15 15:53 24 11 18 56 130° 5 - 29.92 29.98 10 OVC110 None
2017-12-15 14:53 24 10 17 54 200° 6 - 29.95 30.01 10 OVC100 None
2017-12-15 13:53 24 9 16 51 200° 7 - 29.95 30.01 10 BKN130 OVC200 None
2017-12-15 12:53 24 9 - 51 - Calm - 29.98 30.03 10 BKN200 Snow depth: 4"
6-hr Min Temp (1pm): 10.0°F
6-hr Max Temp (1pm): 24.1°F
2017-12-15 11:53 23 9 - 54 - Calm - 30.00 30.06 10 BKN200 None
2017-12-15 10:53 20 8 - 59 - Calm - 30.04 30.10 10 BKN200 None
2017-12-15 09:53 18 8 13 64 180° 3 - 30.06 30.12 10 BKN250 None
2017-12-15 08:53 12 6 6 76 190° 3 - 30.05 30.11 10 BKN250 None
2017-12-15 07:53 11 5 3 76 220° 5 - 30.03 30.10 10 BKN250 None
2017-12-15 06:53 11 3 5 69 Variable 3 - 30.02 30.09 10 SCT250 Snow depth: 4"
6-hr Min Temp (7am): 10.0°F
6-hr Max Temp (7am): 16.0°F
2017-12-15 05:53 11 3 3 69 180° 5 - 30.02 30.08 10 SCT250 None
2017-12-15 04:53 14 4 5 63 210° 6 - 30.01 30.08 10 SCT250 None
2017-12-15 03:53 12 3 - 66 - Calm - 30.00 30.06 10 FEW250 None
2017-12-15 02:53 14 4 8 63 190° 3 - 30.00 30.06 10 FEW250 None

Support USWX by starting your Amazon purchase here.